Time;durP1;ratioP1;P1;durP2;ratioP2;P2;SDS_P1;SDS_P2;PMS_P1;PMS_P2;Temp;Humidity;BMP_temperature;BMP_pressure;BME280_temperature;BME280_humidity;BME280_pressure;Samples;Min_cycle;Max_cycle;Signal;HPM_P1;HPM_P2
2021/09/14 00:02:02;;;;;;;;;12.25;12.25;;;;;24.29;50.89;100590.22;5083384;27;45710;-51
2021/09/14 00:04:27;;;;;;;;;8.75;8.75;;;;;24.29;50.83;100568.53;5046597;28;45329;-53
2021/09/14 00:06:53;;;;;;;;;9.00;9.00;;;;;24.29;50.99;100562.25;5080740;27;47363;-51
2021/09/14 00:09:18;;;;;;;;;12.25;12.25;;;;;24.29;50.99;100562.25;5081115;27;45782;-53
2021/09/14 00:11:43;;;;;;;;;9.50;9.25;;;;;24.28;50.89;100560.50;5081322;28;45799;-51
2021/09/14 00:14:09;;;;;;;;;8.75;8.75;;;;;24.28;51.01;100563.22;5081296;27;45440;-52
2021/09/14 00:16:35;;;;;;;;;8.00;8.00;;;;;24.27;51.23;100559.66;5081445;27;47295;-52
2021/09/14 00:19:00;;;;;;;;;8.00;8.00;;;;;24.27;50.92;100572.34;5080898;27;45330;-50
2021/09/14 00:21:26;;;;;;;;;7.00;7.00;;;;;24.27;51.19;100572.34;5080719;27;45380;-52
2021/09/14 00:23:52;;;;;;;;;10.00;8.50;;;;;24.26;51.32;100574.16;5081143;27;45597;-52
2021/09/14 00:26:17;;;;;;;;;11.00;10.00;;;;;24.23;50.80;100570.84;5077175;27;47896;-53
2021/09/14 00:28:43;;;;;;;;;9.25;9.25;;;;;24.18;51.14;100570.38;5084351;27;45276;-51
2021/09/14 00:31:08;;;;;;;;;8.25;8.25;;;;;24.12;51.37;100569.00;5080954;27;45738;-51
2021/09/14 00:33:34;;;;;;;;;11.50;9.25;;;;;24.09;51.50;100569.25;5080961;27;45887;-53
2021/09/14 00:35:59;;;;;;;;;9.50;9.50;;;;;24.07;51.57;100569.38;5080563;27;45448;-52
2021/09/14 00:38:25;;;;;;;;;10.25;10.25;;;;;24.05;51.57;100559.66;5079998;28;45789;-52
2021/09/14 00:40:50;;;;;;;;;8.25;8.00;;;;;24.04;51.43;100568.78;5080088;27;45484;-52
2021/09/14 00:43:23;;;;;;;;;8.75;8.50;;;;;24.02;51.66;100571.63;5080356;27;45299;-50
2021/09/14 00:45:50;;;;;;;;;7.00;7.00;;;;;24.01;51.80;100583.44;5073147;27;46318;-51
2021/09/14 00:48:16;;;;;;;;;11.00;9.00;;;;;23.99;51.68;100571.84;5080189;27;45314;-52
2021/09/14 00:50:42;;;;;;;;;8.50;8.50;;;;;23.96;51.76;100576.66;5080398;27;45729;-51
2021/09/14 00:53:08;;;;;;;;;9.25;8.50;;;;;23.93;52.23;100572.34;5061863;28;45335;-49
2021/09/14 00:55:34;;;;;;;;;8.00;8.00;;;;;23.92;51.93;100569.75;5079882;27;47082;-52
2021/09/14 00:58:00;;;;;;;;;9.75;9.75;;;;;23.90;51.87;100569.03;5080350;27;45709;-52
2021/09/14 01:00:26;;;;;;;;;9.50;9.50;;;;;23.88;52.00;100570.97;5064565;27;45513;-51
2021/09/14 01:02:52;;;;;;;;;9.25;9.25;;;;;23.85;52.22;100576.63;5081374;27;45536;-53
2021/09/14 01:05:18;;;;;;;;;9.00;9.00;;;;;23.78;52.26;100570.84;5062008;27;45508;-48
2021/09/14 01:07:46;;;;;;;;;11.00;11.00;;;;;23.71;52.26;100570.47;5079662;27;45199;-52
2021/09/14 01:10:12;;;;;;;;;11.00;8.50;;;;;23.69;52.42;100574.28;5061380;28;45428;-50
2021/09/14 01:12:39;;;;;;;;;9.75;9.75;;;;;23.67;52.39;100568.13;5061873;27;45456;-52
2021/09/14 01:15:06;;;;;;;;;9.50;9.50;;;;;23.67;52.49;100578.97;5061525;28;47369;-50
2021/09/14 01:17:31;;;;;;;;;8.50;8.00;;;;;23.64;52.64;100569.25;5080052;27;46209;-51
2021/09/14 01:19:57;;;;;;;;;10.00;10.00;;;;;23.60;52.95;100562.31;5062013;27;45436;-50
2021/09/14 01:22:33;;;;;;;;;11.00;9.25;;;;;23.59;52.98;100570.56;5079551;27;45393;-51
2021/09/14 01:24:59;;;;;;;;;9.00;8.50;;;;;23.59;52.70;100575.97;5078945;27;46631;-52
2021/09/14 01:27:25;;;;;;;;;10.00;9.00;;;;;23.58;52.68;100587.81;5086662;27;45412;-51
2021/09/14 01:32:35;;;;;;;;;11.50;11.00;;;;;23.58;53.20;100587.81;5080073;28;45309;-53
2021/09/14 01:35:13;;;;;;;;;10.75;10.00;;;;;23.60;53.17;100586.69;5079296;27;47388;-51
2021/09/14 01:37:38;;;;;;;;;9.67;9.67;;;;;23.60;53.08;100597.53;5079167;27;45964;-50
2021/09/14 01:40:05;;;;;;;;;9.50;8.50;;;;;23.61;53.12;100604.66;5079018;27;45523;-52
2021/09/14 01:42:31;;;;;;;;;10.75;10.75;;;;;23.59;53.18;100600.34;5061134;28;45550;-50
2021/09/14 01:44:56;;;;;;;;;10.00;10.00;;;;;23.56;53.26;100603.28;5079104;28;47773;-51
2021/09/14 01:47:21;;;;;;;;;7.00;7.00;;;;;23.55;53.23;100615.09;5079582;27;45439;-51
2021/09/14 01:49:47;;;;;;;;;10.00;10.00;;;;;23.57;53.42;100623.97;5078762;27;45338;-49
2021/09/14 01:52:12;;;;;;;;;8.25;8.25;;;;;23.57;53.46;100629.38;5061128;27;45504;-50
2021/09/14 01:54:38;;;;;;;;;10.00;10.00;;;;;23.55;53.42;100632.22;5078961;27;48307;-48
2021/09/14 01:57:04;;;;;;;;;8.25;8.25;;;;;23.57;53.42;100642.94;5061193;28;45688;-52
2021/09/14 01:59:30;;;;;;;;;9.00;8.50;;;;;23.57;53.52;100646.50;5080565;27;45449;-51
2021/09/14 02:02:49;;;;;;;;;7.75;7.50;;;;;23.57;53.62;100657.34;5063077;27;45317;-50
2021/09/14 02:04:51;;;;;;;;;9.75;9.00;;;;;23.55;53.49;100648.47;5064510;27;47547;-52
2021/09/14 02:39:59;;;;;;;;;9.75;9.75;;;;;23.67;54.05;100606.91;5078532;28;45889;-51
2021/09/14 02:58:40;;;;;;;;;12.25;11.00;;;;;23.65;54.67;100580.94;5078899;28;46210;-51
2021/09/14 03:01:10;;;;;;;;;12.00;11.00;;;;;23.60;54.49;100553.31;5082162;27;45659;-51
2021/09/14 03:03:38;;;;;;;;;10.75;10.25;;;;;23.60;54.54;100553.31;5083405;27;45381;-50
2021/09/14 03:06:03;;;;;;;;;5.00;4.25;;;;;23.61;55.32;100545.06;5064352;28;45329;-50
2021/09/14 03:08:29;;;;;;;;;11.00;11.00;;;;;23.62;55.11;100538.66;5081559;27;47435;-52
2021/09/14 03:10:54;;;;;;;;;8.00;8.00;;;;;23.64;54.86;100533.16;5081863;27;45429;-52
2021/09/14 03:13:20;;;;;;;;;12.50;10.50;;;;;23.66;54.94;100523.06;5082376;27;45480;-52
2021/09/14 03:15:46;;;;;;;;;10.50;10.50;;;;;23.67;55.08;100527.50;5082302;27;45259;-51
2021/09/14 03:18:11;;;;;;;;;8.50;8.25;;;;;23.68;55.16;100537.34;5063834;27;46824;-51
2021/09/14 03:20:36;;;;;;;;;12.00;10.25;;;;;23.68;55.69;100535.50;5082042;27;45315;-50
2021/09/14 03:23:02;;;;;;;;;8.00;8.00;;;;;23.66;55.76;100528.47;5081247;27;45377;-50
2021/09/14 03:25:28;;;;;;;;;9.75;9.75;;;;;23.62;56.19;100535.97;5081473;27;45590;-50
2021/09/14 03:27:53;;;;;;;;;7.25;7.25;;;;;23.58;56.14;100539.91;5098420;27;47236;-52
2021/09/14 03:30:19;;;;;;;;;10.75;10.00;;;;;23.53;56.30;100530.41;5081725;27;45960;-51
2021/09/14 03:32:44;;;;;;;;;11.00;11.00;;;;;23.49;56.33;100529.75;5081844;27;45384;-51
2021/09/14 03:35:10;;;;;;;;;11.25;8.50;;;;;23.43;56.90;100524.81;5082016;27;45603;-52
2021/09/14 03:37:36;;;;;;;;;12.25;11.00;;;;;23.37;56.83;100523.44;5081272;27;47351;-52
2021/09/14 03:40:02;;;;;;;;;12.00;12.00;;;;;23.35;57.40;100514.59;5080887;27;45531;-52
2021/09/14 03:42:27;;;;;;;;;11.00;11.00;;;;;23.33;57.50;100507.56;5063510;28;45343;-50
2021/09/14 03:44:53;;;;;;;;;11.50;11.50;;;;;23.27;57.63;100506.22;5063473;28;45283;-53
2021/09/14 03:47:18;;;;;;;;;14.00;13.00;;;;;23.26;57.63;100490.09;5081148;27;47200;-52
2021/09/14 03:49:44;;;;;;;;;13.00;13.00;;;;;23.22;57.72;100489.44;5081325;27;45814;-50
2021/09/14 03:52:09;;;;;;;;;16.25;16.00;;;;;23.18;58.64;100479.84;5062980;28;45516;-51
2021/09/14 03:54:35;;;;;;;;;15.50;14.50;;;;;23.16;58.40;100479.97;5063112;28;45568;-50
2021/09/14 03:57:01;;;;;;;;;13.75;13.50;;;;;23.14;58.19;100481.94;5081223;27;45306;-52
2021/09/14 03:59:26;;;;;;;;;19.75;19.75;;;;;23.14;58.48;100487.34;5082380;27;45982;-51
2021/09/14 04:01:55;;;;;;;;;17.25;16.75;;;;;23.11;58.06;100481.28;5082533;27;45424;-52
2021/09/14 04:04:42;;;;;;;;;12.25;12.25;;;;;23.10;58.17;100485.84;5059497;28;45435;-52
2021/09/14 04:09:37;;;;;;;;;17.25;16.25;;;;;23.10;58.13;100498.53;5062859;28;45317;-50
2021/09/14 04:12:03;;;;;;;;;12.75;12.75;;;;;23.06;58.57;100499.75;5080457;27;45463;-50
2021/09/14 04:14:29;;;;;;;;;16.25;14.25;;;;;23.03;58.27;100489.16;5063276;28;45384;-51
2021/09/14 04:16:55;;;;;;;;;16.50;15.25;;;;;23.01;58.45;100497.41;5080637;27;47222;-51
2021/09/14 04:19:21;;;;;;;;;17.25;15.25;;;;;23.00;58.64;100486.69;5062961;28;45679;-53
2021/09/14 04:21:47;;;;;;;;;18.75;16.75;;;;;22.96;58.74;100486.06;5080531;27;45500;-52
2021/09/14 04:24:13;;;;;;;;;15.00;14.75;;;;;22.94;59.20;100490.72;5081193;27;45574;-52
2021/09/14 04:26:39;;;;;;;;;17.75;17.75;;;;;22.91;59.31;100504.50;5086063;27;47481;-52
2021/09/14 04:29:04;;;;;;;;;16.50;15.75;;;;;22.89;58.98;100493.78;5087157;27;45403;-53
2021/09/14 04:31:30;;;;;;;;;20.00;17.75;;;;;22.88;59.20;100491.22;5080909;27;45445;-51
2021/09/14 04:33:55;;;;;;;;;13.75;12.75;;;;;22.87;59.19;100481.38;5063246;28;45417;-53
2021/09/14 04:36:21;;;;;;;;;17.75;17.75;;;;;22.88;59.28;100483.97;5080760;27;48340;-49
2021/09/14 04:38:46;;;;;;;;;16.75;16.00;;;;;22.89;59.41;100485.69;5080306;28;45450;-52
2021/09/14 04:41:12;;;;;;;;;17.75;15.75;;;;;22.90;59.58;100475.72;5080249;27;45477;-50
2021/09/14 04:43:37;;;;;;;;;13.00;13.00;;;;;22.90;59.37;100459.47;5081068;27;45337;-51
2021/09/14 04:46:04;;;;;;;;;13.25;13.25;;;;;22.92;59.48;100443.97;5062015;28;48256;-53
2021/09/14 04:48:30;;;;;;;;;11.67;11.67;;;;;22.95;59.79;100432.91;5080901;27;45663;-52
2021/09/14 04:50:55;;;;;;;;;16.50;16.50;;;;;22.98;59.41;100415.56;5061258;27;45458;-50
2021/09/14 04:53:21;;;;;;;;;13.75;13.75;;;;;23.01;60.55;100405.38;5080704;27;45453;-53
2021/09/14 04:55:46;;;;;;;;;14.50;13.75;;;;;23.01;60.09;100393.69;5080047;27;47109;-51
2021/09/14 04:58:12;;;;;;;;;14.50;14.50;;;;;23.02;60.31;100362.94;5080189;27;45281;-52
2021/09/14 05:00:37;;;;;;;;;16.50;16.50;;;;;23.03;60.06;100360.13;5058545;27;45249;-49
2021/09/14 05:03:03;;;;;;;;;15.25;15.25;;;;;23.05;60.27;100373.53;5083207;27;45326;-53
2021/09/14 05:05:28;;;;;;;;;17.50;16.25;;;;;23.05;60.44;100396.03;5080249;27;47030;-52
2021/09/14 05:07:54;;;;;;;;;12.25;12.25;;;;;23.07;60.04;100406.75;5063517;28;45362;-56
2021/09/14 05:10:19;;;;;;;;;14.00;13.50;;;;;23.06;60.28;100419.41;5079791;27;45305;-53
2021/09/14 05:12:45;;;;;;;;;14.00;12.75;;;;;23.04;60.29;100418.66;5079916;28;45369;-49
2021/09/14 05:15:10;;;;;;;;;13.75;12.75;;;;;23.01;60.42;100409.94;5079811;28;47193;-55
2021/09/14 05:17:36;;;;;;;;;11.25;11.25;;;;;23.01;60.41;100404.53;5059532;28;45694;-54
2021/09/14 05:20:03;;;;;;;;;11.75;11.75;;;;;23.00;60.20;100414.50;5073452;28;45862;-48
2021/09/14 05:22:32;;;;;;;;;13.00;12.00;;;;;23.00;60.85;100438.00;5075828;28;46108;-49
2021/09/14 05:24:58;;;;;;;;;12.25;12.25;;;;;22.96;60.67;100453.56;5077992;27;47488;-51
2021/09/14 05:27:23;;;;;;;;;11.00;10.00;;;;;22.94;60.61;100457.38;5064264;28;45630;-52
2021/09/14 05:29:49;;;;;;;;;11.00;10.00;;;;;22.92;60.73;100459.34;5079626;28;45572;-52
2021/09/14 05:32:17;;;;;;;;;10.25;10.25;;;;;22.89;60.96;100455.91;5060936;28;45405;-52
2021/09/14 05:34:45;;;;;;;;;11.67;11.00;;;;;22.88;60.47;100474.97;5074506;28;48688;-49
2021/09/14 05:37:11;;;;;;;;;10.00;10.00;;;;;22.84;60.47;100478.88;5052750;28;45354;-51
2021/09/14 05:39:36;;;;;;;;;11.33;10.00;;;;;22.82;60.81;100491.63;5079985;27;45346;-50
2021/09/14 05:42:02;;;;;;;;;13.75;12.25;;;;;22.82;60.78;100513.28;5082045;27;45854;-52
2021/09/14 05:44:27;;;;;;;;;11.50;11.50;;;;;22.82;60.58;100503.31;5079066;28;47282;-51
2021/09/14 05:46:53;;;;;;;;;12.00;12.00;;;;;22.83;60.70;100521.31;5078297;27;45578;-50
2021/09/14 05:49:18;;;;;;;;;12.00;11.25;;;;;22.84;61.03;100520.31;5079564;27;45367;-47
2021/09/14 05:51:44;;;;;;;;;11.00;11.00;;;;;22.86;61.01;100523.78;5061076;28;45494;-49
2021/09/14 05:54:09;;;;;;;;;10.00;10.00;;;;;22.87;60.98;100527.38;5060310;28;47712;-51
2021/09/14 05:56:35;;;;;;;;;9.33;9.33;;;;;22.88;61.30;100545.34;5058426;28;45488;-51
2021/09/14 05:59:00;;;;;;;;;12.00;12.00;;;;;22.89;60.99;100558.75;5076987;27;45350;-52
2021/09/14 06:01:27;;;;;;;;;13.00;13.00;;;;;22.90;61.16;100562.31;5075151;27;45671;-52
2021/09/14 06:03:53;;;;;;;;;11.33;10.00;;;;;22.92;61.36;100573.00;5076952;28;47311;-49
2021/09/14 06:06:19;;;;;;;;;12.67;11.00;;;;;22.93;61.34;100580.16;5059856;28;45659;-50
2021/09/14 06:08:44;;;;;;;;;11.33;11.33;;;;;22.95;61.35;100591.72;5078042;27;45639;-49
2021/09/14 06:11:09;;;;;;;;;12.00;12.00;;;;;22.96;61.37;100593.44;5079142;28;45333;-54
2021/09/14 06:13:35;;;;;;;;;11.67;11.00;;;;;22.96;60.95;100591.59;5060524;28;45373;-47
2021/09/14 06:16:03;;;;;;;;;10.33;10.00;;;;;22.98;61.39;100599.59;5077986;28;45329;-50
2021/09/14 06:18:28;;;;;;;;;10.25;10.25;;;;;22.97;61.21;100609.56;5075482;28;45548;-51
2021/09/14 06:20:54;;;;;;;;;8.67;8.67;;;;;22.97;61.34;100608.69;5077984;28;45412;-51
2021/09/14 06:23:20;;;;;;;;;10.33;10.00;;;;;22.98;61.20;100607.72;5058419;28;47943;-53
2021/09/14 06:25:45;;;;;;;;;9.00;9.00;;;;;22.97;61.17;100600.56;5079772;27;45738;-52
2021/09/14 06:28:11;;;;;;;;;10.25;10.25;;;;;22.96;60.79;100604.25;5093237;27;45413;-51
2021/09/14 06:30:36;;;;;;;;;12.50;12.00;;;;;22.95;61.11;100606.13;5061194;27;45438;-52
2021/09/14 06:33:02;;;;;;;;;9.67;9.33;;;;;22.94;61.53;100598.97;5081460;27;47476;-51
2021/09/14 06:35:27;;;;;;;;;10.33;10.33;;;;;22.95;61.35;100595.28;5078262;28;45378;-52
2021/09/14 06:37:53;;;;;;;;;12.00;10.50;;;;;22.96;61.47;100593.44;5078478;27;45687;-52
2021/09/14 06:40:18;;;;;;;;;10.50;10.25;;;;;22.97;61.25;100592.47;5078868;28;45555;-51
2021/09/14 06:42:44;;;;;;;;;10.75;10.00;;;;;22.97;61.44;100589.75;5077969;27;47152;-53
2021/09/14 06:45:10;;;;;;;;;12.00;11.25;;;;;22.96;61.76;100583.47;5060351;27;45462;-53
2021/09/14 06:47:36;;;;;;;;;10.50;10.50;;;;;22.96;61.96;100594.31;5077944;28;45691;-53
2021/09/14 06:50:03;;;;;;;;;13.50;12.25;;;;;22.97;61.63;100589.75;5060049;28;45437;-48
2021/09/14 06:52:29;;;;;;;;;12.00;10.50;;;;;22.96;61.70;100599.72;5060399;28;47494;-53
2021/09/14 06:54:54;;;;;;;;;12.75;10.75;;;;;22.98;61.99;100616.69;5077497;28;45589;-52
2021/09/14 06:57:20;;;;;;;;;10.25;10.25;;;;;22.99;62.15;100631.09;5078590;28;45378;-53
2021/09/14 06:59:45;;;;;;;;;9.00;9.00;;;;;23.00;62.10;100633.72;5078612;28;45525;-50
2021/09/14 07:02:11;;;;;;;;;14.25;11.00;;;;;23.01;62.55;100645.41;5078240;28;47181;-52
2021/09/14 07:04:36;;;;;;;;;13.50;11.25;;;;;23.00;62.30;100646.38;5085726;27;45627;-48
2021/09/14 07:07:01;;;;;;;;;10.75;10.00;;;;;22.99;62.36;100642.78;5078059;27;45265;-52
2021/09/14 07:09:27;;;;;;;;;16.00;16.00;;;;;22.99;62.48;100633.81;5077970;27;45948;-48
2021/09/14 07:11:53;;;;;;;;;11.50;9.00;;;;;22.99;62.51;100640.06;5078290;27;48271;-53
2021/09/14 07:14:18;;;;;;;;;13.00;12.00;;;;;23.01;62.66;100634.56;5077835;28;45426;-49
2021/09/14 07:16:43;;;;;;;;;11.25;10.25;;;;;23.02;62.87;100636.31;5058762;27;45405;-53
2021/09/14 07:19:09;;;;;;;;;11.75;11.75;;;;;23.01;62.59;100618.34;5077597;27;45401;-52
2021/09/14 07:21:34;;;;;;;;;9.25;9.25;;;;;23.01;62.54;100612.94;5037976;27;46921;-52
2021/09/14 07:24:00;;;;;;;;;10.00;10.00;;;;;23.01;62.91;100600.25;5077511;27;46291;-54
2021/09/14 07:26:25;;;;;;;;;10.75;10.75;;;;;23.01;62.99;100578.59;5084273;27;45468;-52
2021/09/14 07:28:51;;;;;;;;;10.75;9.75;;;;;23.00;63.02;100563.34;5077907;27;45507;-50
2021/09/14 07:31:16;;;;;;;;;11.75;10.25;;;;;23.01;63.29;100556.09;5078031;27;48244;-52
2021/09/14 07:33:42;;;;;;;;;11.00;11.00;;;;;23.01;63.10;100551.53;5059809;28;45354;-52
2021/09/14 07:36:10;;;;;;;;;10.00;10.00;;;;;23.02;63.27;100547.84;5078219;28;45309;-49
2021/09/14 07:38:36;;;;;;;;;11.00;11.00;;;;;23.04;63.40;100548.59;5078122;27;45355;-50
2021/09/14 07:41:03;;;;;;;;;11.67;10.67;;;;;23.06;63.47;100540.34;5077407;27;47005;-53
2021/09/14 07:43:29;;;;;;;;;10.33;8.67;;;;;23.09;63.50;100527.44;5084812;27;45643;-53
2021/09/14 07:45:54;;;;;;;;;12.25;12.00;;;;;23.14;63.33;100527.97;5077756;28;45427;-53
2021/09/14 07:48:20;;;;;;;;;11.00;11.00;;;;;23.18;63.35;100540.28;5078398;27;45454;-53
2021/09/14 07:50:45;;;;;;;;;8.67;8.67;;;;;23.24;63.37;100541.63;5081447;27;48000;-53
2021/09/14 07:53:11;;;;;;;;;9.33;9.33;;;;;23.28;63.30;100521.47;5081088;27;45527;-51
2021/09/14 07:55:37;;;;;;;;;7.75;7.50;;;;;23.34;63.33;100530.94;5068087;28;45306;-49
2021/09/14 07:58:02;;;;;;;;;8.25;8.25;;;;;23.38;63.14;100535.16;5081435;27;45294;-50
2021/09/14 08:00:28;;;;;;;;;7.75;7.75;;;;;23.43;63.43;100541.94;5068018;28;47094;-51
2021/09/14 08:02:58;;;;;;;;;8.75;7.00;;;;;23.48;63.30;100555.09;5085812;27;45342;-53
2021/09/14 08:05:25;;;;;;;;;8.75;8.75;;;;;23.54;63.10;100564.63;5081431;27;45272;-52
2021/09/14 08:07:50;;;;;;;;;9.33;9.33;;;;;23.60;62.94;100561.44;5081143;27;45796;-53
2021/09/14 08:10:16;;;;;;;;;9.00;7.75;;;;;23.66;63.05;100567.25;5081114;28;47757;-51
2021/09/14 08:12:42;;;;;;;;;7.33;7.33;;;;;23.71;62.95;100572.31;5062535;27;45535;-52
2021/09/14 08:15:08;;;;;;;;;9.00;9.00;;;;;23.76;62.87;100570.13;5081474;27;45431;-53
2021/09/14 08:17:34;;;;;;;;;9.50;9.50;;;;;23.81;62.84;100577.88;5080459;27;45473;-52
2021/09/14 08:20:01;;;;;;;;;8.33;8.33;;;;;23.85;62.55;100582.06;5081098;27;46069;-49
2021/09/14 08:22:26;;;;;;;;;11.75;9.75;;;;;23.89;62.64;100583.56;5045541;28;45477;-52
2021/09/14 08:24:52;;;;;;;;;16.25;15.25;;;;;23.91;62.43;100582.44;5083149;27;45430;-51
2021/09/14 08:27:17;;;;;;;;;12.50;10.75;;;;;23.93;62.47;100585.91;5090543;27;45906;-52
2021/09/14 08:29:43;;;;;;;;;14.00;13.50;;;;;23.94;62.33;100590.31;5080523;27;47486;-51
2021/09/14 08:32:10;;;;;;;;;13.50;13.50;;;;;23.94;62.26;100603.03;5080788;27;45571;-51
2021/09/14 08:34:35;;;;;;;;;14.75;12.75;;;;;23.94;62.47;100608.44;5080875;27;45397;-53
2021/09/14 08:37:01;;;;;;;;;12.00;12.00;;;;;23.94;62.48;100612.00;5080776;27;45516;-53
2021/09/14 08:39:26;;;;;;;;;11.25;11.25;;;;;23.93;62.57;100604.88;5080311;27;48183;-48
2021/09/14 08:41:52;;;;;;;;;11.33;11.33;;;;;23.92;62.65;100599.56;5080295;27;45427;-52
2021/09/14 08:44:19;;;;;;;;;12.50;11.50;;;;;23.94;62.55;100594.88;5062654;27;45654;-51
2021/09/14 08:46:45;;;;;;;;;11.33;10.33;;;;;23.97;62.64;100603.63;5079997;27;45581;-51
2021/09/14 08:49:12;;;;;;;;;11.67;11.33;;;;;24.01;62.68;100610.56;5080601;27;48241;-52
2021/09/14 08:51:38;;;;;;;;;12.00;12.00;;;;;24.05;62.83;100611.16;5080703;27;45454;-50
2021/09/14 08:54:04;;;;;;;;;11.33;10.00;;;;;24.05;62.31;100620.16;5081216;27;45299;-52
2021/09/14 08:56:30;;;;;;;;;12.33;12.00;;;;;24.04;62.36;100620.28;5080513;27;45592;-50
2021/09/14 08:59:01;;;;;;;;;11.00;11.00;;;;;24.04;62.41;100633.84;5080493;27;46557;-52
2021/09/14 09:01:27;;;;;;;;;12.00;12.00;;;;;24.05;62.74;100633.72;5080730;27;45813;-52
2021/09/14 09:04:04;;;;;;;;;11.33;11.33;;;;;24.10;62.98;100627.91;5062487;28;45391;-51
2021/09/14 09:06:36;;;;;;;;;14.00;12.25;;;;;24.12;62.90;100639.50;5062534;28;45618;-51
2021/09/14 09:09:14;;;;;;;;;13.75;13.25;;;;;24.17;62.69;100631.00;5079557;27;47249;-53
2021/09/14 09:12:05;;;;;;;;;16.33;12.67;;;;;24.22;62.77;100628.78;5057381;27;45484;-53
2021/09/14 09:14:36;;;;;;;;;13.75;13.00;;;;;24.26;62.92;100631.13;5062120;28;45349;-51
2021/09/14 09:17:03;;;;;;;;;14.33;13.33;;;;;24.29;62.66;100636.31;5078822;27;45378;-50
2021/09/14 09:19:29;;;;;;;;;12.33;12.33;;;;;24.34;62.55;100633.25;5080145;27;45643;-52
2021/09/14 09:21:58;;;;;;;;;14.33;12.67;;;;;24.37;62.34;100633.00;5080362;27;45743;-53
2021/09/14 09:24:23;;;;;;;;;12.67;12.67;;;;;24.41;62.51;100625.50;5079959;27;45408;-52
2021/09/14 09:26:48;;;;;;;;;13.33;13.33;;;;;24.43;62.25;100626.25;5067720;27;45764;-52
2021/09/14 09:29:21;;;;;;;;;12.67;12.33;;;;;24.45;62.45;100626.97;5088945;27;48292;-53
2021/09/14 09:31:49;;;;;;;;;13.00;13.00;;;;;24.47;62.18;100625.84;5079953;27;45504;-53
2021/09/14 09:34:14;;;;;;;;;13.00;13.00;;;;;24.50;62.36;100619.31;5079852;27;45406;-50
2021/09/14 09:36:43;;;;;;;;;15.75;14.00;;;;;24.53;62.64;100611.81;5061930;27;45512;-53
2021/09/14 09:39:14;;;;;;;;;12.33;12.33;;;;;24.55;62.55;100619.81;5061032;28;48398;-53
2021/09/14 09:41:50;;;;;;;;;12.33;12.00;;;;;24.62;62.49;100621.03;5078251;27;45360;-53
2021/09/14 09:44:16;;;;;;;;;13.50;13.50;;;;;24.67;62.37;100629.69;5080373;27;45814;-52
2021/09/14 09:46:42;;;;;;;;;14.25;12.75;;;;;24.74;62.49;100628.16;5079957;27;45353;-52
2021/09/14 09:49:09;;;;;;;;;14.00;13.00;;;;;24.80;62.46;100632.25;5069400;27;48181;-50
2021/09/14 09:51:38;;;;;;;;;14.75;14.25;;;;;24.84;61.84;100621.00;5079838;28;45789;-51
2021/09/14 09:54:05;;;;;;;;;11.67;11.67;;;;;24.88;62.19;100622.44;5079668;28;45428;-52
2021/09/14 09:56:32;;;;;;;;;13.00;13.00;;;;;24.92;62.12;100604.09;5080405;28;45458;-50
2021/09/14 09:59:01;;;;;;;;;16.00;14.25;;;;;24.94;61.92;100604.81;5061247;28;47209;-52
2021/09/14 10:01:27;;;;;;;;;12.75;12.00;;;;;24.95;61.83;100604.69;5079794;28;45564;-53
2021/09/14 10:04:11;;;;;;;;;18.25;18.25;;;;;24.97;61.52;100609.13;5079579;28;45454;-52
2021/09/14 10:06:47;;;;;;;;;18.25;17.00;;;;;24.98;61.42;100605.41;5062016;28;45446;-53
2021/09/14 10:09:13;;;;;;;;;15.00;13.67;;;;;25.00;61.72;100600.69;5083510;27;48123;-49
2021/09/14 10:11:39;;;;;;;;;12.67;12.00;;;;;25.00;61.55;100596.13;5060931;28;45553;-51
2021/09/14 10:14:14;;;;;;;;;13.00;12.50;;;;;25.03;61.23;100605.91;5044786;28;45401;-52
2021/09/14 10:16:47;;;;;;;;;14.50;13.75;;;;;25.06;61.45;100611.09;5079843;28;45487;-51
2021/09/14 10:19:17;;;;;;;;;14.00;14.00;;;;;25.06;61.43;100611.97;5079284;28;47314;-52
2021/09/14 10:21:46;;;;;;;;;12.33;11.67;;;;;25.07;61.24;100605.53;5078460;28;45560;-50
2021/09/14 10:24:22;;;;;;;;;14.00;14.00;;;;;25.12;61.31;100603.28;5087039;27;45757;-52
2021/09/14 10:26:49;;;;;;;;;12.00;12.00;;;;;25.17;61.08;100606.50;5085673;27;45372;-52
2021/09/14 10:29:18;;;;;;;;;12.67;11.67;;;;;25.21;61.45;100604.38;5081704;27;46327;-48
2021/09/14 10:31:43;;;;;;;;;14.67;14.67;;;;;25.26;61.51;100606.69;5060794;28;45504;-50
2021/09/14 10:34:12;;;;;;;;;12.00;12.00;;;;;25.30;60.80;100603.59;5078742;28;45434;-51
2021/09/14 10:36:42;;;;;;;;;10.33;10.33;;;;;25.33;61.03;100607.91;5079567;27;45717;-51
2021/09/14 10:39:22;;;;;;;;;15.75;14.75;;;;;25.39;60.95;100612.78;5077657;28;46694;-52
2021/09/14 10:41:51;;;;;;;;;10.33;10.33;;;;;25.44;60.51;100613.28;5077313;27;45430;-51
2021/09/14 10:44:26;;;;;;;;;13.00;12.67;;;;;25.50;60.43;100612.75;5078794;27;45513;-48
2021/09/14 10:47:07;;;;;;;;;13.50;11.75;;;;;25.55;60.51;100605.06;5078482;28;45543;-49
2021/09/14 10:49:51;;;;;;;;;13.00;13.00;;;;;25.56;60.00;100622.25;5078312;27;47098;-52
2021/09/14 10:52:30;;;;;;;;;10.00;10.00;;;;;25.53;59.92;100620.63;5078889;27;45275;-49
2021/09/14 10:54:56;;;;;;;;;14.25;14.25;;;;;25.49;60.39;100605.59;5078525;28;45683;-50
2021/09/14 10:57:32;;;;;;;;;13.00;11.67;;;;;25.43;60.19;100608.84;5079204;27;45436;-50
2021/09/14 10:59:57;;;;;;;;;8.00;7.67;;;;;25.36;59.89;100607.63;5078681;28;48279;-52
2021/09/14 11:02:24;;;;;;;;;14.67;14.00;;;;;25.33;60.41;100605.19;5079073;27;45239;-53
2021/09/14 11:04:49;;;;;;;;;14.00;13.67;;;;;25.29;59.95;100607.31;5060693;28;45766;-51
2021/09/14 11:07:17;;;;;;;;;15.33;13.67;;;;;25.29;60.37;100614.59;5079084;28;45517;-51
2021/09/14 11:09:44;;;;;;;;;9.33;9.33;;;;;25.28;60.46;100602.84;5059649;28;47031;-50
2021/09/14 11:12:28;;;;;;;;;16.00;15.00;;;;;25.27;60.63;100598.41;5078943;27;45478;-52
2021/09/14 11:14:55;;;;;;;;;16.50;14.25;;;;;25.27;60.37;100600.25;5077699;27;45442;-52
2021/09/14 11:17:29;;;;;;;;;13.33;12.00;;;;;25.27;60.17;100601.13;5078731;27;45735;-52
2021/09/14 11:20:06;;;;;;;;;14.00;14.00;;;;;25.33;60.63;100606.03;5060213;28;48283;-52
2021/09/14 11:22:34;;;;;;;;;14.33;14.00;;;;;25.43;60.20;100600.69;5079928;27;45408;-50
2021/09/14 11:25:00;;;;;;;;;12.00;12.00;;;;;25.52;60.00;100594.44;5084758;27;45511;-51
2021/09/14 11:27:26;;;;;;;;;16.67;15.00;;;;;25.62;60.13;100595.38;5093921;27;45622;-52
2021/09/14 11:29:51;;;;;;;;;14.75;14.25;;;;;25.68;60.23;100600.31;5085427;27;48400;-53
2021/09/14 11:32:17;;;;;;;;;13.67;12.67;;;;;25.78;60.01;100603.94;5081633;27;45251;-51
2021/09/14 11:34:43;;;;;;;;;12.50;12.00;;;;;25.86;59.57;100600.56;5081622;27;45503;-50
2021/09/14 11:37:08;;;;;;;;;12.25;10.50;;;;;25.95;59.80;100602.50;5082084;27;45524;-52
2021/09/14 11:39:38;;;;;;;;;12.50;12.50;;;;;26.06;59.69;100598.84;5080924;27;46070;-51
2021/09/14 11:42:07;;;;;;;;;9.33;9.33;;;;;26.16;59.01;100599.72;5081047;27;45603;-49
2021/09/14 11:44:33;;;;;;;;;12.25;11.75;;;;;26.20;58.86;100603.91;5081785;27;45503;-52
2021/09/14 11:47:09;;;;;;;;;12.00;11.00;;;;;26.19;58.68;100599.47;5081351;27;45365;-52
2021/09/14 11:49:34;;;;;;;;;12.00;10.00;;;;;26.16;58.39;100601.59;5075214;27;47211;-51
2021/09/14 11:52:02;;;;;;;;;12.00;12.00;;;;;26.15;59.04;100597.13;5081510;28;45814;-51
2021/09/14 11:54:36;;;;;;;;;15.67;14.00;;;;;26.13;58.23;100599.13;5081469;27;45471;-51
2021/09/14 11:57:03;;;;;;;;;11.00;11.00;;;;;26.10;58.85;100595.69;5081632;28;45403;-53
2021/09/14 11:59:31;;;;;;;;;11.67;11.67;;;;;26.07;58.00;100587.81;5081492;27;47246;-51
2021/09/14 12:01:57;;;;;;;;;12.00;12.00;;;;;26.03;58.03;100591.78;5063407;28;45359;-52
2021/09/14 12:04:22;;;;;;;;;10.33;10.33;;;;;25.99;58.47;100582.19;5081706;28;45562;-52
2021/09/14 12:06:55;;;;;;;;;9.33;9.33;;;;;25.97;58.02;100584.19;5081194;28;45321;-52
2021/09/14 12:09:22;;;;;;;;;12.00;11.00;;;;;25.98;57.75;100585.91;5083107;27;47438;-53